sensor_id;sensor_type;location;lat;lon;timestamp;P1;durP1;ratioP1;P2;durP2;ratioP2
16153;SDS011;8182;55.648;13.208;2023-05-21T00:01:28;3.47;;;2.00;;
16153;SDS011;8182;55.648;13.208;2023-05-21T00:03:59;4.47;;;2.10;;
16153;SDS011;8182;55.648;13.208;2023-05-21T00:06:27;4.23;;;2.00;;
16153;SDS011;8182;55.648;13.208;2023-05-21T00:08:54;2.40;;;2.10;;
16153;SDS011;8182;55.648;13.208;2023-05-21T00:11:21;6.83;;;2.33;;
16153;SDS011;8182;55.648;13.208;2023-05-21T00:13:55;2.47;;;2.00;;
16153;SDS011;8182;55.648;13.208;2023-05-21T00:16:22;7.60;;;2.27;;
16153;SDS011;8182;55.648;13.208;2023-05-21T00:18:50;3.30;;;2.00;;
16153;SDS011;8182;55.648;13.208;2023-05-21T00:21:18;5.17;;;2.30;;
16153;SDS011;8182;55.648;13.208;2023-05-21T00:23:50;3.30;;;2.13;;
16153;SDS011;8182;55.648;13.208;2023-05-21T00:26:18;4.20;;;2.07;;
16153;SDS011;8182;55.648;13.208;2023-05-21T00:28:45;4.27;;;2.10;;
16153;SDS011;8182;55.648;13.208;2023-05-21T00:31:16;5.50;;;2.30;;
16153;SDS011;8182;55.648;13.208;2023-05-21T00:33:46;2.80;;;2.20;;
16153;SDS011;8182;55.648;13.208;2023-05-21T00:36:15;5.37;;;2.23;;
16153;SDS011;8182;55.648;13.208;2023-05-21T00:38:42;5.07;;;2.20;;
16153;SDS011;8182;55.648;13.208;2023-05-21T00:41:09;3.80;;;2.20;;
16153;SDS011;8182;55.648;13.208;2023-05-21T00:43:38;5.20;;;2.47;;
16153;SDS011;8182;55.648;13.208;2023-05-21T00:46:06;3.40;;;2.27;;
16153;SDS011;8182;55.648;13.208;2023-05-21T00:48:35;6.47;;;2.63;;
16153;SDS011;8182;55.648;13.208;2023-05-21T00:51:02;3.50;;;2.13;;
16153;SDS011;8182;55.648;13.208;2023-05-21T00:53:30;4.70;;;2.30;;
16153;SDS011;8182;55.648;13.208;2023-05-21T00:55:59;4.67;;;2.13;;
16153;SDS011;8182;55.648;13.208;2023-05-21T00:58:26;5.10;;;2.23;;
16153;SDS011;8182;55.648;13.208;2023-05-21T01:00:53;3.53;;;2.40;;
16153;SDS011;8182;55.648;13.208;2023-05-21T01:03:21;4.93;;;2.27;;
16153;SDS011;8182;55.648;13.208;2023-05-21T01:05:53;3.57;;;2.10;;
16153;SDS011;8182;55.648;13.208;2023-05-21T01:08:24;3.63;;;2.20;;
16153;SDS011;8182;55.648;13.208;2023-05-21T01:10:51;3.77;;;2.30;;
16153;SDS011;8182;55.648;13.208;2023-05-21T01:13:21;4.63;;;2.13;;
16153;SDS011;8182;55.648;13.208;2023-05-21T01:15:49;5.67;;;2.53;;
16153;SDS011;8182;55.648;13.208;2023-05-21T01:18:17;6.33;;;2.40;;
16153;SDS011;8182;55.648;13.208;2023-05-21T01:20:45;3.90;;;2.13;;
16153;SDS011;8182;55.648;13.208;2023-05-21T01:23:15;3.73;;;2.50;;
16153;SDS011;8182;55.648;13.208;2023-05-21T01:25:42;5.97;;;2.07;;
16153;SDS011;8182;55.648;13.208;2023-05-21T01:28:09;4.00;;;2.27;;
16153;SDS011;8182;55.648;13.208;2023-05-21T01:30:36;2.67;;;2.17;;
16153;SDS011;8182;55.648;13.208;2023-05-21T01:33:06;2.73;;;2.13;;
16153;SDS011;8182;55.648;13.208;2023-05-21T01:35:39;4.57;;;2.33;;
16153;SDS011;8182;55.648;13.208;2023-05-21T01:38:11;3.40;;;2.20;;
16153;SDS011;8182;55.648;13.208;2023-05-21T01:40:44;3.77;;;2.10;;
16153;SDS011;8182;55.648;13.208;2023-05-21T01:43:18;4.63;;;2.17;;
16153;SDS011;8182;55.648;13.208;2023-05-21T01:45:46;5.57;;;2.30;;
16153;SDS011;8182;55.648;13.208;2023-05-21T01:48:17;4.53;;;2.40;;
16153;SDS011;8182;55.648;13.208;2023-05-21T01:50:44;5.10;;;2.13;;
16153;SDS011;8182;55.648;13.208;2023-05-21T01:53:12;4.73;;;2.13;;
16153;SDS011;8182;55.648;13.208;2023-05-21T01:55:42;5.57;;;2.40;;
16153;SDS011;8182;55.648;13.208;2023-05-21T01:58:10;3.87;;;2.20;;
16153;SDS011;8182;55.648;13.208;2023-05-21T02:00:36;2.87;;;2.20;;
16153;SDS011;8182;55.648;13.208;2023-05-21T02:03:04;3.93;;;2.13;;
16153;SDS011;8182;55.648;13.208;2023-05-21T02:05:36;4.57;;;2.30;;
16153;SDS011;8182;55.648;13.208;2023-05-21T02:08:03;3.47;;;2.03;;
16153;SDS011;8182;55.648;13.208;2023-05-21T02:10:33;9.50;;;2.20;;
16153;SDS011;8182;55.648;13.208;2023-05-21T02:13:00;4.30;;;2.07;;
16153;SDS011;8182;55.648;13.208;2023-05-21T02:15:27;2.97;;;2.13;;
16153;SDS011;8182;55.648;13.208;2023-05-21T02:17:55;4.17;;;2.17;;
16153;SDS011;8182;55.648;13.208;2023-05-21T02:20:22;5.00;;;2.10;;
16153;SDS011;8182;55.648;13.208;2023-05-21T02:22:50;5.30;;;2.13;;
16153;SDS011;8182;55.648;13.208;2023-05-21T02:25:17;6.57;;;2.30;;
16153;SDS011;8182;55.648;13.208;2023-05-21T02:27:46;4.93;;;2.10;;
16153;SDS011;8182;55.648;13.208;2023-05-21T02:30:18;4.13;;;1.97;;
16153;SDS011;8182;55.648;13.208;2023-05-21T02:32:45;3.03;;;1.93;;
16153;SDS011;8182;55.648;13.208;2023-05-21T02:35:14;3.80;;;2.30;;
16153;SDS011;8182;55.648;13.208;2023-05-21T02:37:41;6.43;;;2.20;;
16153;SDS011;8182;55.648;13.208;2023-05-21T02:40:13;4.20;;;2.20;;
16153;SDS011;8182;55.648;13.208;2023-05-21T02:42:40;4.47;;;2.40;;
16153;SDS011;8182;55.648;13.208;2023-05-21T02:45:09;5.40;;;2.30;;
16153;SDS011;8182;55.648;13.208;2023-05-21T02:47:37;3.97;;;2.13;;
16153;SDS011;8182;55.648;13.208;2023-05-21T02:50:05;5.20;;;2.47;;
16153;SDS011;8182;55.648;13.208;2023-05-21T02:52:33;4.00;;;2.10;;
16153;SDS011;8182;55.648;13.208;2023-05-21T02:54:59;3.07;;;2.20;;
16153;SDS011;8182;55.648;13.208;2023-05-21T02:57:27;3.77;;;2.10;;
16153;SDS011;8182;55.648;13.208;2023-05-21T02:59:54;3.37;;;2.50;;
16153;SDS011;8182;55.648;13.208;2023-05-21T03:02:22;3.13;;;2.07;;
16153;SDS011;8182;55.648;13.208;2023-05-21T03:04:49;3.73;;;2.00;;
16153;SDS011;8182;55.648;13.208;2023-05-21T03:07:16;4.70;;;2.33;;
16153;SDS011;8182;55.648;13.208;2023-05-21T03:09:44;4.00;;;2.00;;
16153;SDS011;8182;55.648;13.208;2023-05-21T03:12:12;3.27;;;1.90;;
16153;SDS011;8182;55.648;13.208;2023-05-21T03:14:40;5.20;;;2.40;;
16153;SDS011;8182;55.648;13.208;2023-05-21T03:17:08;7.83;;;2.10;;
16153;SDS011;8182;55.648;13.208;2023-05-21T03:19:39;3.07;;;1.97;;
16153;SDS011;8182;55.648;13.208;2023-05-21T03:22:07;5.97;;;2.33;;
16153;SDS011;8182;55.648;13.208;2023-05-21T03:24:36;6.30;;;2.53;;
16153;SDS011;8182;55.648;13.208;2023-05-21T03:27:03;4.50;;;1.93;;
16153;SDS011;8182;55.648;13.208;2023-05-21T03:29:31;4.80;;;2.30;;
16153;SDS011;8182;55.648;13.208;2023-05-21T03:31:59;3.20;;;1.80;;
16153;SDS011;8182;55.648;13.208;2023-05-21T03:34:27;2.97;;;2.00;;
16153;SDS011;8182;55.648;13.208;2023-05-21T03:36:55;2.60;;;2.00;;
16153;SDS011;8182;55.648;13.208;2023-05-21T03:39:22;4.63;;;2.20;;
16153;SDS011;8182;55.648;13.208;2023-05-21T03:41:50;4.97;;;2.10;;
16153;SDS011;8182;55.648;13.208;2023-05-21T03:44:17;4.73;;;1.80;;
16153;SDS011;8182;55.648;13.208;2023-05-21T03:46:45;3.83;;;2.30;;
16153;SDS011;8182;55.648;13.208;2023-05-21T03:49:12;3.87;;;2.03;;
16153;SDS011;8182;55.648;13.208;2023-05-21T03:51:39;5.57;;;2.23;;
16153;SDS011;8182;55.648;13.208;2023-05-21T03:54:07;5.60;;;1.90;;
16153;SDS011;8182;55.648;13.208;2023-05-21T03:56:34;2.80;;;2.00;;
16153;SDS011;8182;55.648;13.208;2023-05-21T03:59:01;3.10;;;2.00;;
16153;SDS011;8182;55.648;13.208;2023-05-21T04:01:29;4.87;;;2.03;;
16153;SDS011;8182;55.648;13.208;2023-05-21T04:03:57;3.27;;;1.90;;
16153;SDS011;8182;55.648;13.208;2023-05-21T04:06:23;3.60;;;1.80;;
16153;SDS011;8182;55.648;13.208;2023-05-21T04:08:51;5.97;;;1.90;;
16153;SDS011;8182;55.648;13.208;2023-05-21T04:11:19;4.37;;;1.90;;
16153;SDS011;8182;55.648;13.208;2023-05-21T04:13:46;4.17;;;2.20;;
16153;SDS011;8182;55.648;13.208;2023-05-21T04:16:13;4.43;;;2.07;;
16153;SDS011;8182;55.648;13.208;2023-05-21T04:18:43;6.90;;;2.10;;
16153;SDS011;8182;55.648;13.208;2023-05-21T04:21:10;4.23;;;2.10;;
16153;SDS011;8182;55.648;13.208;2023-05-21T04:23:37;3.27;;;1.83;;
16153;SDS011;8182;55.648;13.208;2023-05-21T04:26:05;2.93;;;1.80;;
16153;SDS011;8182;55.648;13.208;2023-05-21T04:28:33;3.53;;;2.07;;
16153;SDS011;8182;55.648;13.208;2023-05-21T04:31:00;2.43;;;1.67;;
16153;SDS011;8182;55.648;13.208;2023-05-21T04:33:27;3.40;;;2.00;;
16153;SDS011;8182;55.648;13.208;2023-05-21T04:35:54;3.30;;;2.03;;
16153;SDS011;8182;55.648;13.208;2023-05-21T04:38:22;4.80;;;1.93;;
16153;SDS011;8182;55.648;13.208;2023-05-21T04:40:51;4.03;;;2.00;;
16153;SDS011;8182;55.648;13.208;2023-05-21T04:43:19;4.37;;;1.83;;
16153;SDS011;8182;55.648;13.208;2023-05-21T04:45:51;5.30;;;2.07;;
16153;SDS011;8182;55.648;13.208;2023-05-21T04:48:19;3.27;;;1.83;;
16153;SDS011;8182;55.648;13.208;2023-05-21T04:50:46;2.47;;;2.07;;
16153;SDS011;8182;55.648;13.208;2023-05-21T04:53:14;3.03;;;1.97;;
16153;SDS011;8182;55.648;13.208;2023-05-21T04:55:41;2.90;;;1.83;;
16153;SDS011;8182;55.648;13.208;2023-05-21T04:58:08;3.07;;;1.70;;
16153;SDS011;8182;55.648;13.208;2023-05-21T05:00:35;5.77;;;2.13;;
16153;SDS011;8182;55.648;13.208;2023-05-21T05:03:05;3.63;;;2.10;;
16153;SDS011;8182;55.648;13.208;2023-05-21T05:05:34;2.20;;;1.80;;
16153;SDS011;8182;55.648;13.208;2023-05-21T05:08:01;5.83;;;1.90;;
16153;SDS011;8182;55.648;13.208;2023-05-21T05:10:28;4.17;;;1.70;;
16153;SDS011;8182;55.648;13.208;2023-05-21T05:12:55;4.17;;;1.97;;
16153;SDS011;8182;55.648;13.208;2023-05-21T05:15:23;5.03;;;2.00;;
16153;SDS011;8182;55.648;13.208;2023-05-21T05:17:50;8.43;;;1.80;;
16153;SDS011;8182;55.648;13.208;2023-05-21T05:20:19;2.83;;;2.10;;
16153;SDS011;8182;55.648;13.208;2023-05-21T05:22:47;5.40;;;1.80;;
16153;SDS011;8182;55.648;13.208;2023-05-21T05:25:13;2.43;;;1.87;;
16153;SDS011;8182;55.648;13.208;2023-05-21T05:27:40;4.00;;;1.80;;
16153;SDS011;8182;55.648;13.208;2023-05-21T05:30:08;2.27;;;1.77;;
16153;SDS011;8182;55.648;13.208;2023-05-21T05:32:35;4.63;;;1.90;;
16153;SDS011;8182;55.648;13.208;2023-05-21T05:35:02;2.17;;;1.60;;
16153;SDS011;8182;55.648;13.208;2023-05-21T05:37:32;5.70;;;2.07;;
16153;SDS011;8182;55.648;13.208;2023-05-21T05:39:59;3.97;;;1.93;;
16153;SDS011;8182;55.648;13.208;2023-05-21T05:42:26;3.23;;;1.73;;
16153;SDS011;8182;55.648;13.208;2023-05-21T05:44:53;6.53;;;1.90;;
16153;SDS011;8182;55.648;13.208;2023-05-21T05:47:20;3.57;;;1.90;;
16153;SDS011;8182;55.648;13.208;2023-05-21T05:49:47;4.60;;;1.80;;
16153;SDS011;8182;55.648;13.208;2023-05-21T05:52:14;3.57;;;1.80;;
16153;SDS011;8182;55.648;13.208;2023-05-21T05:54:42;3.70;;;1.67;;
16153;SDS011;8182;55.648;13.208;2023-05-21T05:57:09;6.40;;;1.90;;
16153;SDS011;8182;55.648;13.208;2023-05-21T05:59:36;3.30;;;1.60;;
16153;SDS011;8182;55.648;13.208;2023-05-21T06:02:03;3.97;;;1.60;;
16153;SDS011;8182;55.648;13.208;2023-05-21T06:04:30;4.03;;;1.77;;
16153;SDS011;8182;55.648;13.208;2023-05-21T06:06:57;7.37;;;1.80;;
16153;SDS011;8182;55.648;13.208;2023-05-21T06:09:25;5.83;;;1.90;;
16153;SDS011;8182;55.648;13.208;2023-05-21T06:11:54;1.90;;;1.70;;
16153;SDS011;8182;55.648;13.208;2023-05-21T06:14:21;5.17;;;1.80;;
16153;SDS011;8182;55.648;13.208;2023-05-21T06:16:48;3.43;;;1.80;;
16153;SDS011;8182;55.648;13.208;2023-05-21T06:19:15;3.10;;;1.80;;
16153;SDS011;8182;55.648;13.208;2023-05-21T06:21:42;5.13;;;1.63;;
16153;SDS011;8182;55.648;13.208;2023-05-21T06:24:09;4.10;;;1.80;;
16153;SDS011;8182;55.648;13.208;2023-05-21T06:26:36;4.23;;;1.70;;
16153;SDS011;8182;55.648;13.208;2023-05-21T06:29:05;3.43;;;1.77;;
16153;SDS011;8182;55.648;13.208;2023-05-21T06:31:32;3.13;;;1.60;;
16153;SDS011;8182;55.648;13.208;2023-05-21T06:33:59;3.97;;;1.80;;
16153;SDS011;8182;55.648;13.208;2023-05-21T06:36:26;3.77;;;1.97;;
16153;SDS011;8182;55.648;13.208;2023-05-21T06:38:54;5.17;;;2.10;;
16153;SDS011;8182;55.648;13.208;2023-05-21T06:41:21;3.33;;;1.80;;
16153;SDS011;8182;55.648;13.208;2023-05-21T06:43:48;5.03;;;1.80;;
16153;SDS011;8182;55.648;13.208;2023-05-21T06:46:17;4.43;;;1.93;;
16153;SDS011;8182;55.648;13.208;2023-05-21T06:48:44;3.10;;;1.67;;
16153;SDS011;8182;55.648;13.208;2023-05-21T06:51:11;4.27;;;1.90;;
16153;SDS011;8182;55.648;13.208;2023-05-21T06:53:38;5.00;;;1.97;;
16153;SDS011;8182;55.648;13.208;2023-05-21T06:56:05;3.67;;;1.90;;
16153;SDS011;8182;55.648;13.208;2023-05-21T06:58:33;4.67;;;2.00;;
16153;SDS011;8182;55.648;13.208;2023-05-21T07:01:00;3.00;;;1.90;;
16153;SDS011;8182;55.648;13.208;2023-05-21T07:03:28;5.60;;;2.00;;
16153;SDS011;8182;55.648;13.208;2023-05-21T07:05:55;4.97;;;2.03;;
16153;SDS011;8182;55.648;13.208;2023-05-21T07:08:22;3.20;;;2.00;;
16153;SDS011;8182;55.648;13.208;2023-05-21T07:10:50;2.53;;;1.90;;
16153;SDS011;8182;55.648;13.208;2023-05-21T07:13:17;3.53;;;1.90;;
16153;SDS011;8182;55.648;13.208;2023-05-21T07:15:43;3.43;;;2.20;;
16153;SDS011;8182;55.648;13.208;2023-05-21T07:18:10;5.43;;;2.10;;
16153;SDS011;8182;55.648;13.208;2023-05-21T07:20:39;2.70;;;1.80;;
16153;SDS011;8182;55.648;13.208;2023-05-21T07:23:07;6.47;;;2.10;;
16153;SDS011;8182;55.648;13.208;2023-05-21T07:25:34;3.07;;;2.00;;
16153;SDS011;8182;55.648;13.208;2023-05-21T07:28:01;4.23;;;1.90;;
16153;SDS011;8182;55.648;13.208;2023-05-21T07:30:28;5.30;;;2.10;;
16153;SDS011;8182;55.648;13.208;2023-05-21T07:32:58;3.30;;;2.00;;
16153;SDS011;8182;55.648;13.208;2023-05-21T07:35:25;4.57;;;1.90;;
16153;SDS011;8182;55.648;13.208;2023-05-21T07:37:54;5.13;;;2.20;;
16153;SDS011;8182;55.648;13.208;2023-05-21T07:40:21;4.80;;;2.00;;
16153;SDS011;8182;55.648;13.208;2023-05-21T07:42:48;2.93;;;2.10;;
16153;SDS011;8182;55.648;13.208;2023-05-21T07:45:16;2.70;;;1.83;;
16153;SDS011;8182;55.648;13.208;2023-05-21T07:47:43;5.90;;;2.13;;
16153;SDS011;8182;55.648;13.208;2023-05-21T07:50:11;3.90;;;2.10;;
16153;SDS011;8182;55.648;13.208;2023-05-21T07:52:39;7.50;;;2.00;;
16153;SDS011;8182;55.648;13.208;2023-05-21T07:55:07;4.27;;;1.70;;
16153;SDS011;8182;55.648;13.208;2023-05-21T07:57:34;3.73;;;2.30;;
16153;SDS011;8182;55.648;13.208;2023-05-21T08:00:02;3.53;;;2.20;;
16153;SDS011;8182;55.648;13.208;2023-05-21T08:02:30;3.03;;;2.23;;
16153;SDS011;8182;55.648;13.208;2023-05-21T08:04:57;3.23;;;2.30;;
16153;SDS011;8182;55.648;13.208;2023-05-21T08:07:25;4.03;;;2.30;;
16153;SDS011;8182;55.648;13.208;2023-05-21T08:09:52;3.13;;;2.20;;
16153;SDS011;8182;55.648;13.208;2023-05-21T08:12:21;3.13;;;2.10;;
16153;SDS011;8182;55.648;13.208;2023-05-21T08:14:48;3.37;;;2.07;;
16153;SDS011;8182;55.648;13.208;2023-05-21T08:17:15;4.70;;;2.03;;
16153;SDS011;8182;55.648;13.208;2023-05-21T08:19:42;3.40;;;2.20;;
16153;SDS011;8182;55.648;13.208;2023-05-21T08:22:09;3.37;;;2.10;;
16153;SDS011;8182;55.648;13.208;2023-05-21T08:24:36;4.70;;;2.40;;
16153;SDS011;8182;55.648;13.208;2023-05-21T08:27:03;4.43;;;2.50;;
16153;SDS011;8182;55.648;13.208;2023-05-21T08:29:33;5.50;;;2.60;;
16153;SDS011;8182;55.648;13.208;2023-05-21T08:32:00;3.00;;;2.27;;
16153;SDS011;8182;55.648;13.208;2023-05-21T08:34:27;2.33;;;2.13;;
16153;SDS011;8182;55.648;13.208;2023-05-21T08:36:54;8.40;;;2.50;;
16153;SDS011;8182;55.648;13.208;2023-05-21T08:39:21;3.57;;;2.37;;
16153;SDS011;8182;55.648;13.208;2023-05-21T08:41:48;5.87;;;2.50;;
16153;SDS011;8182;55.648;13.208;2023-05-21T08:44:20;4.00;;;2.40;;
16153;SDS011;8182;55.648;13.208;2023-05-21T08:46:52;4.67;;;2.47;;
16153;SDS011;8182;55.648;13.208;2023-05-21T08:49:23;5.37;;;2.53;;
16153;SDS011;8182;55.648;13.208;2023-05-21T08:51:55;4.40;;;2.20;;
16153;SDS011;8182;55.648;13.208;2023-05-21T08:54:24;6.27;;;2.30;;
16153;SDS011;8182;55.648;13.208;2023-05-21T08:56:52;6.50;;;2.83;;
16153;SDS011;8182;55.648;13.208;2023-05-21T08:59:20;2.40;;;2.20;;
16153;SDS011;8182;55.648;13.208;2023-05-21T09:01:48;5.37;;;2.57;;
16153;SDS011;8182;55.648;13.208;2023-05-21T09:04:17;8.23;;;2.63;;
16153;SDS011;8182;55.648;13.208;2023-05-21T09:06:45;6.33;;;2.50;;
16153;SDS011;8182;55.648;13.208;2023-05-21T09:09:13;5.37;;;2.87;;
16153;SDS011;8182;55.648;13.208;2023-05-21T09:11:48;3.50;;;2.70;;
16153;SDS011;8182;55.648;13.208;2023-05-21T09:14:15;3.67;;;2.80;;
16153;SDS011;8182;55.648;13.208;2023-05-21T09:16:44;5.67;;;2.53;;
16153;SDS011;8182;55.648;13.208;2023-05-21T09:19:12;3.00;;;2.60;;
16153;SDS011;8182;55.648;13.208;2023-05-21T09:21:41;4.50;;;2.67;;
16153;SDS011;8182;55.648;13.208;2023-05-21T09:24:08;3.73;;;2.67;;
16153;SDS011;8182;55.648;13.208;2023-05-21T09:26:36;3.27;;;2.67;;
16153;SDS011;8182;55.648;13.208;2023-05-21T09:29:06;5.40;;;2.50;;
16153;SDS011;8182;55.648;13.208;2023-05-21T09:31:32;3.10;;;2.50;;
16153;SDS011;8182;55.648;13.208;2023-05-21T09:34:00;5.93;;;2.77;;
16153;SDS011;8182;55.648;13.208;2023-05-21T09:36:27;4.13;;;2.90;;
16153;SDS011;8182;55.648;13.208;2023-05-21T09:38:59;3.47;;;2.60;;
16153;SDS011;8182;55.648;13.208;2023-05-21T09:41:32;7.10;;;2.70;;
16153;SDS011;8182;55.648;13.208;2023-05-21T09:44:01;4.23;;;2.80;;
16153;SDS011;8182;55.648;13.208;2023-05-21T09:46:36;3.67;;;2.90;;
16153;SDS011;8182;55.648;13.208;2023-05-21T09:49:04;4.40;;;2.83;;
16153;SDS011;8182;55.648;13.208;2023-05-21T09:51:30;4.17;;;3.00;;
16153;SDS011;8182;55.648;13.208;2023-05-21T09:53:59;6.57;;;3.20;;
16153;SDS011;8182;55.648;13.208;2023-05-21T09:56:26;4.20;;;2.80;;
16153;SDS011;8182;55.648;13.208;2023-05-21T09:58:56;4.60;;;2.70;;
16153;SDS011;8182;55.648;13.208;2023-05-21T10:01:25;5.20;;;3.00;;
16153;SDS011;8182;55.648;13.208;2023-05-21T10:03:53;4.33;;;2.53;;
16153;SDS011;8182;55.648;13.208;2023-05-21T10:06:23;4.17;;;3.00;;
16153;SDS011;8182;55.648;13.208;2023-05-21T10:08:52;4.80;;;2.97;;
16153;SDS011;8182;55.648;13.208;2023-05-21T10:11:24;7.00;;;2.90;;
16153;SDS011;8182;55.648;13.208;2023-05-21T10:13:54;3.50;;;3.00;;
16153;SDS011;8182;55.648;13.208;2023-05-21T10:16:23;3.60;;;3.00;;
16153;SDS011;8182;55.648;13.208;2023-05-21T10:18:50;6.00;;;2.90;;
16153;SDS011;8182;55.648;13.208;2023-05-21T10:21:20;5.53;;;3.23;;
16153;SDS011;8182;55.648;13.208;2023-05-21T10:23:48;6.73;;;2.97;;
16153;SDS011;8182;55.648;13.208;2023-05-21T10:26:16;3.43;;;2.90;;
16153;SDS011;8182;55.648;13.208;2023-05-21T10:28:46;6.23;;;3.23;;
16153;SDS011;8182;55.648;13.208;2023-05-21T10:31:16;5.33;;;2.70;;
16153;SDS011;8182;55.648;13.208;2023-05-21T10:33:43;4.63;;;2.73;;
16153;SDS011;8182;55.648;13.208;2023-05-21T10:36:10;5.50;;;3.20;;
16153;SDS011;8182;55.648;13.208;2023-05-21T10:38:39;4.03;;;3.00;;
16153;SDS011;8182;55.648;13.208;2023-05-21T10:41:08;3.53;;;2.70;;
16153;SDS011;8182;55.648;13.208;2023-05-21T10:43:39;6.70;;;3.13;;
16153;SDS011;8182;55.648;13.208;2023-05-21T10:46:18;5.93;;;3.07;;
16153;SDS011;8182;55.648;13.208;2023-05-21T10:49:06;4.30;;;2.97;;
16153;SDS011;8182;55.648;13.208;2023-05-21T10:52:07;3.87;;;3.00;;
16153;SDS011;8182;55.648;13.208;2023-05-21T10:54:50;3.83;;;2.63;;
16153;SDS011;8182;55.648;13.208;2023-05-21T10:57:37;4.33;;;3.17;;
16153;SDS011;8182;55.648;13.208;2023-05-21T11:00:39;6.33;;;3.00;;
16153;SDS011;8182;55.648;13.208;2023-05-21T11:03:08;3.60;;;3.00;;
16153;SDS011;8182;55.648;13.208;2023-05-21T11:05:37;4.83;;;3.10;;
16153;SDS011;8182;55.648;13.208;2023-05-21T11:08:10;4.73;;;3.30;;
16153;SDS011;8182;55.648;13.208;2023-05-21T11:10:50;6.07;;;3.20;;
16153;SDS011;8182;55.648;13.208;2023-05-21T11:13:17;5.13;;;3.33;;
16153;SDS011;8182;55.648;13.208;2023-05-21T11:18:59;4.80;;;3.20;;
16153;SDS011;8182;55.648;13.208;2023-05-21T11:21:29;5.33;;;3.23;;
16153;SDS011;8182;55.648;13.208;2023-05-21T11:24:02;4.50;;;3.13;;
16153;SDS011;8182;55.648;13.208;2023-05-21T11:29:40;3.97;;;3.57;;
16153;SDS011;8182;55.648;13.208;2023-05-21T11:32:09;8.13;;;3.80;;
16153;SDS011;8182;55.648;13.208;2023-05-21T11:34:42;4.53;;;4.00;;
16153;SDS011;8182;55.648;13.208;2023-05-21T11:37:30;5.47;;;4.00;;
16153;SDS011;8182;55.648;13.208;2023-05-21T11:40:18;7.70;;;4.17;;
16153;SDS011;8182;55.648;13.208;2023-05-21T11:42:48;4.40;;;3.97;;
16153;SDS011;8182;55.648;13.208;2023-05-21T11:45:17;6.67;;;4.47;;
16153;SDS011;8182;55.648;13.208;2023-05-21T11:47:45;5.10;;;4.60;;
16153;SDS011;8182;55.648;13.208;2023-05-21T11:50:14;5.97;;;4.30;;
16153;SDS011;8182;55.648;13.208;2023-05-21T11:52:42;6.30;;;4.47;;
16153;SDS011;8182;55.648;13.208;2023-05-21T11:55:10;6.43;;;5.27;;
16153;SDS011;8182;55.648;13.208;2023-05-21T11:57:40;5.83;;;5.10;;
16153;SDS011;8182;55.648;13.208;2023-05-21T12:00:11;6.30;;;5.20;;
16153;SDS011;8182;55.648;13.208;2023-05-21T12:02:44;5.63;;;4.90;;
16153;SDS011;8182;55.648;13.208;2023-05-21T12:05:12;5.93;;;5.30;;
16153;SDS011;8182;55.648;13.208;2023-05-21T12:07:41;5.80;;;5.17;;
16153;SDS011;8182;55.648;13.208;2023-05-21T12:10:12;7.63;;;5.67;;
16153;SDS011;8182;55.648;13.208;2023-05-21T12:12:39;8.83;;;5.43;;
16153;SDS011;8182;55.648;13.208;2023-05-21T12:15:07;5.83;;;5.27;;
16153;SDS011;8182;55.648;13.208;2023-05-21T12:17:36;5.67;;;5.00;;
16153;SDS011;8182;55.648;13.208;2023-05-21T12:20:03;6.27;;;5.67;;
16153;SDS011;8182;55.648;13.208;2023-05-21T12:22:36;7.33;;;6.10;;
16153;SDS011;8182;55.648;13.208;2023-05-21T12:25:07;9.47;;;6.30;;
16153;SDS011;8182;55.648;13.208;2023-05-21T12:27:36;7.80;;;5.90;;
16153;SDS011;8182;55.648;13.208;2023-05-21T12:30:03;10.00;;;5.90;;
16153;SDS011;8182;55.648;13.208;2023-05-21T12:32:32;10.00;;;5.57;;
16153;SDS011;8182;55.648;13.208;2023-05-21T12:34:59;11.80;;;6.23;;
16153;SDS011;8182;55.648;13.208;2023-05-21T12:37:27;7.47;;;6.10;;
16153;SDS011;8182;55.648;13.208;2023-05-21T12:39:58;9.27;;;6.00;;
16153;SDS011;8182;55.648;13.208;2023-05-21T12:42:26;7.27;;;5.80;;
16153;SDS011;8182;55.648;13.208;2023-05-21T12:44:55;9.13;;;5.47;;
16153;SDS011;8182;55.648;13.208;2023-05-21T12:47:23;8.57;;;5.97;;
16153;SDS011;8182;55.648;13.208;2023-05-21T12:49:52;9.10;;;6.27;;
16153;SDS011;8182;55.648;13.208;2023-05-21T12:52:22;10.10;;;6.77;;
16153;SDS011;8182;55.648;13.208;2023-05-21T12:54:50;7.17;;;6.47;;
16153;SDS011;8182;55.648;13.208;2023-05-21T12:57:22;7.90;;;6.60;;
16153;SDS011;8182;55.648;13.208;2023-05-21T12:59:50;6.90;;;6.20;;
16153;SDS011;8182;55.648;13.208;2023-05-21T13:02:18;9.13;;;6.53;;
16153;SDS011;8182;55.648;13.208;2023-05-21T13:04:46;7.33;;;6.47;;
16153;SDS011;8182;55.648;13.208;2023-05-21T13:07:14;7.13;;;6.40;;
16153;SDS011;8182;55.648;13.208;2023-05-21T13:09:41;9.93;;;6.50;;
16153;SDS011;8182;55.648;13.208;2023-05-21T13:12:09;8.53;;;6.53;;
16153;SDS011;8182;55.648;13.208;2023-05-21T13:14:38;9.40;;;6.40;;
16153;SDS011;8182;55.648;13.208;2023-05-21T13:17:05;7.87;;;6.77;;
16153;SDS011;8182;55.648;13.208;2023-05-21T13:19:32;8.43;;;6.10;;
16153;SDS011;8182;55.648;13.208;2023-05-21T13:21:59;7.70;;;6.60;;
16153;SDS011;8182;55.648;13.208;2023-05-21T13:24:26;6.57;;;5.87;;
16153;SDS011;8182;55.648;13.208;2023-05-21T13:26:53;8.03;;;6.07;;
16153;SDS011;8182;55.648;13.208;2023-05-21T13:29:20;9.27;;;6.57;;
16153;SDS011;8182;55.648;13.208;2023-05-21T13:31:50;10.93;;;6.40;;
16153;SDS011;8182;55.648;13.208;2023-05-21T13:34:17;8.47;;;5.80;;
16153;SDS011;8182;55.648;13.208;2023-05-21T13:36:44;11.17;;;5.80;;
16153;SDS011;8182;55.648;13.208;2023-05-21T13:39:11;6.80;;;6.07;;
16153;SDS011;8182;55.648;13.208;2023-05-21T13:41:38;9.93;;;6.23;;
16153;SDS011;8182;55.648;13.208;2023-05-21T13:44:06;8.37;;;6.20;;
16153;SDS011;8182;55.648;13.208;2023-05-21T13:46:33;9.23;;;6.33;;
16153;SDS011;8182;55.648;13.208;2023-05-21T13:49:04;7.30;;;6.27;;
16153;SDS011;8182;55.648;13.208;2023-05-21T13:51:32;8.80;;;6.30;;
16153;SDS011;8182;55.648;13.208;2023-05-21T13:53:59;9.97;;;6.37;;
16153;SDS011;8182;55.648;13.208;2023-05-21T13:56:26;8.50;;;6.68;;
16153;SDS011;8182;55.648;13.208;2023-05-21T13:58:53;9.50;;;6.37;;
16153;SDS011;8182;55.648;13.208;2023-05-21T14:01:20;9.87;;;6.53;;
16153;SDS011;8182;55.648;13.208;2023-05-21T14:03:47;8.00;;;6.20;;
16153;SDS011;8182;55.648;13.208;2023-05-21T14:06:16;9.30;;;6.43;;
16153;SDS011;8182;55.648;13.208;2023-05-21T14:08:43;10.37;;;6.50;;
16153;SDS011;8182;55.648;13.208;2023-05-21T14:11:10;8.37;;;6.57;;
16153;SDS011;8182;55.648;13.208;2023-05-21T14:13:37;8.93;;;6.23;;
16153;SDS011;8182;55.648;13.208;2023-05-21T14:16:05;6.83;;;6.23;;
16153;SDS011;8182;55.648;13.208;2023-05-21T14:18:33;7.43;;;6.30;;
16153;SDS011;8182;55.648;13.208;2023-05-21T14:21:00;6.70;;;5.90;;
16153;SDS011;8182;55.648;13.208;2023-05-21T14:23:28;7.83;;;6.10;;
16153;SDS011;8182;55.648;13.208;2023-05-21T14:25:55;8.40;;;5.67;;
16153;SDS011;8182;55.648;13.208;2023-05-21T14:28:22;7.50;;;5.93;;
16153;SDS011;8182;55.648;13.208;2023-05-21T14:30:49;9.83;;;6.20;;
16153;SDS011;8182;55.648;13.208;2023-05-21T14:33:16;12.33;;;5.90;;
16153;SDS011;8182;55.648;13.208;2023-05-21T14:35:43;9.63;;;5.50;;
16153;SDS011;8182;55.648;13.208;2023-05-21T14:38:12;10.00;;;6.03;;
16153;SDS011;8182;55.648;13.208;2023-05-21T14:40:40;7.83;;;5.70;;
16153;SDS011;8182;55.648;13.208;2023-05-21T14:43:08;7.63;;;5.63;;
16153;SDS011;8182;55.648;13.208;2023-05-21T14:45:35;8.10;;;5.77;;
16153;SDS011;8182;55.648;13.208;2023-05-21T14:48:02;10.70;;;6.47;;
16153;SDS011;8182;55.648;13.208;2023-05-21T14:50:32;7.67;;;5.90;;
16153;SDS011;8182;55.648;13.208;2023-05-21T14:53:02;10.60;;;8.80;;
16153;SDS011;8182;55.648;13.208;2023-05-21T14:55:29;8.13;;;7.20;;
16153;SDS011;8182;55.648;13.208;2023-05-21T14:57:58;9.03;;;6.43;;
16153;SDS011;8182;55.648;13.208;2023-05-21T15:00:26;11.07;;;6.80;;
16153;SDS011;8182;55.648;13.208;2023-05-21T15:02:53;7.60;;;5.50;;